nws-alerts: Checking more than four warning/county codes can delay the loading of your pages. You should use a cron job to get the data.
EllijayWeather Station Historical Data
Daily Summary for April 5, 2019 Units:  English    Metric   Both
Daily Weekly Monthly Yearly Custom
  High: Low: Average:
Temperature: 67.1 °F 50.9 °F 57.1 °F
Dew Point: 60.4 °F 47.5 °F 54.6 °F
Humidity: 100% 69% 92%
Wind Speed: 4.9mph 0.0mph 0.1mph
Wind Gust: 9.0mph - -
Wind- - SSE
Pressure: 30.18 in 30.06 in -
Precipitation: 0.73 in    
Historical Graphs
 
 
Tabular Data for April 5, 2019
Time Temperature Dew Point Pressure Wind Wind Speed Wind Gust Humidity Rainfall Rate (Hourly) solar
00:04 54.9 °F 47.5 °F 30.18 in Calm   1.0 mph 76% 0.01 in meteobridge W/m2
00:09 54.3 °F 47.7 °F 30.18 in SE 4.0 mph 4.0 mph 78% 0.01 in meteobridge W/m2
00:14 54.0 °F 47.7 °F 30.18 in Calm   5.0 mph 79% 0.01 in meteobridge W/m2
00:19 53.4 °F 47.5 °F 30.18 in SE 2.0 mph 8.0 mph 80% 0.01 in meteobridge W/m2
00:24 53.2 °F 47.8 °F 30.17 in Calm   2.0 mph 82% 0.01 in meteobridge W/m2
00:29 53.1 °F 48.4 °F 30.17 in Calm     84% 0.02 in meteobridge W/m2
00:34 52.7 °F 48.4 °F 30.17 in Calm     85% 0.02 in meteobridge W/m2
00:39 52.3 °F 48.6 °F 30.17 in Calm   1.0 mph 87% 0.02 in meteobridge W/m2
00:44 52.0 °F 48.6 °F 30.17 in Calm   1.0 mph 88% 0.02 in meteobridge W/m2
00:49 51.8 °F 48.7 °F 30.17 in Calm     89% 0.03 in meteobridge W/m2
00:54 51.4 °F 48.6 °F 30.17 in SE 2.0 mph 2.0 mph 90% 0.02 in meteobridge W/m2
00:59 51.4 °F 48.6 °F 30.16 in Calm     90% 0.03 in meteobridge W/m2
01:04 51.3 °F 48.7 °F 30.16 in Calm     91% 0.03 in meteobridge W/m2
01:09 51.1 °F 48.9 °F 30.16 in Calm     92% 0.03 in meteobridge W/m2
01:14 51.1 °F 48.9 °F 30.16 in Calm     92% 0.04 in meteobridge W/m2
01:19 51.1 °F 48.9 °F 30.16 in Calm     92% 0.04 in meteobridge W/m2
01:24 50.9 °F 48.9 °F 30.15 in Calm   5.0 mph 93% 0.05 in meteobridge W/m2
01:29 51.1 °F 49.1 °F 30.14 in Calm   2.0 mph 93% 0.04 in meteobridge W/m2
01:34 51.1 °F 49.1 °F 30.14 in Calm   2.0 mph 93% 0.04 in meteobridge W/m2
01:39 50.9 °F 49.3 °F 30.14 in Calm     94% 0.04 in meteobridge W/m2
01:44 50.9 °F 49.3 °F 30.14 in Calm     94% 0.05 in meteobridge W/m2
01:49 51.1 °F 49.5 °F 30.14 in Calm     94% 0.05 in meteobridge W/m2
01:54 50.9 °F 49.3 °F 30.14 in Calm     94% 0.05 in meteobridge W/m2
01:59 51.1 °F 49.5 °F 30.14 in Calm     94% 0.04 in meteobridge W/m2
02:04 51.1 °F 49.5 °F 30.13 in Calm   4.0 mph 94% 0.04 in meteobridge W/m2
02:09 51.1 °F 49.5 °F 30.12 in SE 0.9 mph 1.0 mph 94% 0.04 in meteobridge W/m2
02:14 51.3 °F 49.6 °F 30.12 in Calm   1.0 mph 94% 0.03 in meteobridge W/m2
02:19 51.3 °F 49.6 °F 30.12 in Calm   1.0 mph 94% 0.03 in meteobridge W/m2
02:24 51.4 °F 49.8 °F 30.12 in SE 0.9 mph 1.0 mph 94% 0.02 in meteobridge W/m2
02:29 51.4 °F 49.8 °F 30.11 in Calm     94% 0.02 in meteobridge W/m2
02:34 51.4 °F 49.8 °F 30.11 in ESE 2.0 mph 4.0 mph 94% 0.02 in meteobridge W/m2
02:39 51.6 °F 50.2 °F 30.11 in SE 4.9 mph 6.0 mph 95% 0.03 in meteobridge W/m2
02:44 51.6 °F 50.0 °F 30.11 in Calm   5.0 mph 94% 0.02 in meteobridge W/m2
02:49 51.8 °F 50.2 °F 30.11 in Calm   3.0 mph 94% 0.01 in meteobridge W/m2
02:54 52.0 °F 50.4 °F 30.11 in ESE 0.9 mph 4.0 mph 94% 0.01 in meteobridge W/m2
02:59 52.0 °F 50.4 °F 30.10 in Calm   2.0 mph 94% 0.01 in meteobridge W/m2
03:04 52.0 °F 50.4 °F 30.10 in Calm   2.0 mph 94% 0.01 in meteobridge W/m2
03:09 52.0 °F 50.4 °F 30.10 in Calm   4.0 mph 94% 0.01 in meteobridge W/m2
03:14 52.2 °F 50.7 °F 30.09 in Calm   2.0 mph 95% 0.02 in meteobridge W/m2
03:19 52.2 °F 50.7 °F 30.09 in Calm     95% 0.02 in meteobridge W/m2
03:24 52.2 °F 50.7 °F 30.09 in Calm     95% 0.02 in meteobridge W/m2
03:29 52.2 °F 50.7 °F 30.09 in Calm     95% 0.02 in meteobridge W/m2
03:34 52.2 °F 50.7 °F 30.09 in Calm     95% 0.02 in meteobridge W/m2
03:39 52.2 °F 50.7 °F 30.09 in Calm     95% 0.02 in meteobridge W/m2
03:44 52.2 °F 50.7 °F 30.09 in SE 4.0 mph 4.0 mph 95% 0.01 in meteobridge W/m2
03:49 52.2 °F 50.7 °F 30.09 in Calm     95% 0.02 in meteobridge W/m2
03:54 52.2 °F 50.7 °F 30.09 in Calm     95% 0.02 in meteobridge W/m2
03:59 52.2 °F 51.1 °F 30.09 in Calm     96% 0.02 in meteobridge W/m2
04:04 52.2 °F 51.1 °F 30.08 in Calm     96% 0.02 in meteobridge W/m2
04:09 52.2 °F 51.1 °F 30.08 in Calm     96% 0.02 in meteobridge W/m2
04:14 52.2 °F 51.1 °F 30.08 in Calm     96% 0.01 in meteobridge W/m2
04:19 52.2 °F 51.1 °F 30.07 in Calm     96% 0.01 in meteobridge W/m2
04:24 52.2 °F 51.1 °F 30.08 in Calm     96% 0.02 in meteobridge W/m2
04:29 52.2 °F 51.3 °F 30.07 in Calm     97% 0.03 in meteobridge W/m2
04:34 52.2 °F 51.3 °F 30.08 in Calm     97% 0.04 in meteobridge W/m2
04:39 52.2 °F 51.3 °F 30.07 in Calm     97% 0.04 in meteobridge W/m2
04:44 52.2 °F 51.3 °F 30.08 in Calm     97% 0.04 in meteobridge W/m2
04:49 52.2 °F 51.3 °F 30.07 in Calm     97% 0.03 in meteobridge W/m2
04:54 52.3 °F 51.4 °F 30.08 in Calm   2.0 mph 97% 0.03 in meteobridge W/m2
04:59 52.3 °F 51.4 °F 30.07 in Calm   1.0 mph 97% 0.03 in meteobridge W/m2
05:04 52.3 °F 51.4 °F 30.07 in Calm     97% 0.03 in meteobridge W/m2
05:09 52.5 °F 51.6 °F 30.08 in Calm   2.0 mph 97% 0.03 in meteobridge W/m2
05:14 52.7 °F 51.8 °F 30.08 in Calm     97% 0.04 in meteobridge W/m2
05:19 53.2 °F 52.7 °F 30.07 in East 2.0 mph 2.0 mph 98% 0.04 in meteobridge W/m2
05:24 53.2 °F 52.7 °F 30.07 in Calm     98% 0.03 in meteobridge W/m2
05:29 53.4 °F 52.5 °F 30.07 in Calm     97% 0.02 in meteobridge W/m2
05:34 53.6 °F 53.6 °F 30.07 in Calm   2.0 mph 100% 0.01 in meteobridge W/m2
05:39 53.8 °F 52.9 °F 30.08 in Calm     97% 0.01 in meteobridge W/m2
05:44 53.8 °F 52.9 °F 30.07 in Calm     97% 0.01 in meteobridge W/m2
05:49 53.8 °F 52.9 °F 30.07 in Calm     97% 0.02 in meteobridge W/m2
05:54 54.0 °F 53.1 °F 30.07 in Calm     97% 0.03 in meteobridge W/m2
05:59 54.0 °F 53.1 °F 30.07 in Calm     97% 0.03 in meteobridge W/m2
06:04 54.1 °F 53.2 °F 30.07 in Calm     97% 0.03 in meteobridge W/m2
06:09 54.1 °F 53.2 °F 30.07 in Calm     97% 0.03 in meteobridge W/m2
06:14 54.1 °F 53.2 °F 30.07 in Calm     97% 0.02 in meteobridge W/m2
06:19 54.1 °F 53.2 °F 30.07 in Calm     97% 0.02 in meteobridge W/m2
06:24 54.3 °F 53.4 °F 30.07 in Calm     97% 0.03 in meteobridge W/m2
06:29 54.3 °F 53.4 °F 30.07 in Calm     97% 0.03 in meteobridge W/m2
06:34 54.3 °F 53.4 °F 30.07 in Calm     97% 0.03 in meteobridge W/m2
06:39 54.3 °F 53.4 °F 30.07 in Calm     97% 0.03 in meteobridge W/m2
06:44 54.3 °F 53.4 °F 30.07 in Calm     97% 0.03 in meteobridge W/m2
06:49 54.1 °F 53.2 °F 30.07 in Calm     97% 0.02 in meteobridge W/m2
06:54 54.1 °F 53.2 °F 30.07 in Calm     97% 0.01 in meteobridge W/m2
06:59 54.1 °F 53.2 °F 30.07 in Calm     97% 0.01 in meteobridge W/m2
07:04 54.1 °F 53.2 °F 30.06 in Calm     97% 0.01 in meteobridge W/m2
07:09 54.1 °F 53.2 °F 30.07 in Calm     97% 0.01 in meteobridge W/m2
07:14 54.1 °F 53.2 °F 30.07 in Calm     97% 0.02 in meteobridge W/m2
07:19 54.0 °F 53.1 °F 30.07 in Calm     97% 0.02 in meteobridge W/m2
07:24 54.0 °F 53.1 °F 30.07 in Calm     97% 0.03 in meteobridge W/m2
07:29 54.0 °F 53.1 °F 30.08 in Calm     97% 0.06 in meteobridge W/m2
07:34 54.0 °F 53.1 °F 30.08 in Calm     97% 0.07 in meteobridge W/m2
07:39 54.0 °F 53.1 °F 30.08 in Calm     97% 0.07 in meteobridge W/m2
07:44 54.0 °F 53.1 °F 30.08 in Calm     97% 0.11 in meteobridge W/m2
07:49 54.0 °F 53.1 °F 30.08 in Calm     97% 0.14 in meteobridge W/m2
07:54 54.0 °F 53.4 °F 30.08 in Calm     98% 0.16 in meteobridge W/m2
07:59 54.0 °F 53.4 °F 30.09 in Calm     98% 0.16 in meteobridge W/m2
08:04 54.0 °F 53.4 °F 30.08 in Calm     98% 0.16 in meteobridge W/m2
08:09 54.0 °F 53.4 °F 30.08 in Calm     98% 0.22 in meteobridge W/m2
08:14 54.0 °F 53.4 °F 30.08 in Calm     98% 0.25 in meteobridge W/m2
08:19 54.0 °F 53.4 °F 30.09 in Calm     98% 0.26 in meteobridge W/m2
08:24 54.0 °F 53.4 °F 30.09 in Calm     98% 0.24 in meteobridge W/m2
08:29 54.0 °F 53.4 °F 30.09 in Calm     98% 0.22 in meteobridge W/m2
08:34 54.1 °F 53.6 °F 30.09 in Calm     98% 0.21 in meteobridge W/m2
08:39 54.1 °F 53.6 °F 30.09 in Calm     98% 0.22 in meteobridge W/m2
08:44 54.1 °F 53.6 °F 30.09 in Calm     98% 0.19 in meteobridge W/m2
08:49 54.1 °F 53.6 °F 30.09 in Calm     98% 0.22 in meteobridge W/m2
08:54 54.1 °F 53.6 °F 30.09 in Calm     98% 0.25 in meteobridge W/m2
08:59 54.1 °F 53.6 °F 30.09 in Calm     98% 0.28 in meteobridge W/m2
09:04 54.3 °F 53.8 °F 30.09 in Calm     98% 0.30 in meteobridge W/m2
09:09 54.3 °F 53.8 °F 30.10 in Calm     98% 0.24 in meteobridge W/m2
09:14 54.3 °F 53.8 °F 30.09 in Calm     98% 0.21 in meteobridge W/m2
09:19 54.5 °F 54.0 °F 30.09 in Calm     98% 0.20 in meteobridge W/m2
09:24 54.5 °F 54.0 °F 30.09 in Calm     98% 0.19 in meteobridge W/m2
09:29 54.7 °F 54.1 °F 30.10 in Calm     98% 0.20 in meteobridge W/m2
09:34 54.7 °F 54.1 °F 30.10 in Calm     98% 0.20 in meteobridge W/m2
09:39 54.7 °F 54.1 °F 30.10 in Calm     98% 0.19 in meteobridge W/m2
09:44 54.9 °F 54.3 °F 30.10 in Calm     98% 0.19 in meteobridge W/m2
09:49 54.9 °F 54.3 °F 30.10 in Calm     98% 0.13 in meteobridge W/m2
09:54 54.9 °F 54.3 °F 30.10 in Calm     98% 0.09 in meteobridge W/m2
09:59 55.0 °F 54.5 °F 30.10 in Calm     98% 0.07 in meteobridge W/m2
10:04 55.0 °F 54.5 °F 30.10 in Calm     98% 0.06 in meteobridge W/m2
10:09 55.2 °F 54.7 °F 30.10 in Calm     98% 0.06 in meteobridge W/m2
10:14 55.2 °F 54.7 °F 30.09 in Calm     98% 0.06 in meteobridge W/m2
10:19 55.2 °F 54.9 °F 30.09 in Calm     99% 0.07 in meteobridge W/m2
10:24 55.6 °F 55.0 °F 30.09 in Calm     98% 0.08 in meteobridge W/m2
10:29 55.8 °F 55.4 °F 30.09 in Calm     99% 0.07 in meteobridge W/m2
10:34 55.9 °F 55.6 °F 30.09 in Calm     99% 0.07 in meteobridge W/m2
10:39 56.1 °F 55.8 °F 30.09 in Calm     99% 0.07 in meteobridge W/m2
10:44 56.1 °F 55.8 °F 30.09 in Calm     99% 0.07 in meteobridge W/m2
10:49 56.5 °F 56.1 °F 30.10 in Calm     99% 0.07 in meteobridge W/m2
10:54 56.7 °F 56.3 °F 30.10 in Calm     99% 0.06 in meteobridge W/m2
10:59 56.8 °F 56.5 °F 30.09 in Calm     99% 0.05 in meteobridge W/m2
11:04 56.8 °F 56.3 °F 30.09 in Calm     98% 0.04 in meteobridge W/m2
11:09 56.8 °F 56.3 °F 30.09 in Calm     98% 0.03 in meteobridge W/m2
11:14 56.8 °F 56.3 °F 30.09 in Calm     98% 0.03 in meteobridge W/m2
11:19 57.2 °F 56.8 °F 30.09 in Calm     99% 0.02 in meteobridge W/m2
11:24 57.4 °F 56.8 °F 30.09 in Calm     98% 0.01 in meteobridge W/m2
11:29 57.4 °F 56.8 °F 30.10 in Calm     98% 0.01 in meteobridge W/m2
11:34 57.6 °F 57.0 °F 30.10 in Calm     98% 0.01 in meteobridge W/m2
11:39 57.7 °F 57.2 °F 30.09 in Calm     98% 0.01 in meteobridge W/m2
11:44 57.9 °F 57.0 °F 30.09 in Calm     97% 0.00 in meteobridge W/m2
11:49 58.3 °F 57.7 °F 30.09 in Calm     98% 0.00 in meteobridge W/m2
11:54 58.3 °F 57.4 °F 30.09 in Calm     97% 0.00 in meteobridge W/m2
11:59 58.5 °F 57.6 °F 30.09 in Calm     97% 0.00 in meteobridge W/m2
12:04 58.6 °F 57.7 °F 30.10 in Calm     97% 0.00 in meteobridge W/m2
12:09 58.8 °F 57.9 °F 30.09 in Calm     97% 0.00 in meteobridge W/m2
12:14 58.8 °F 57.9 °F 30.09 in Calm     97% 0.00 in meteobridge W/m2
12:19 59.0 °F 58.1 °F 30.10 in Calm     97% 0.00 in meteobridge W/m2
12:24 59.2 °F 58.3 °F 30.10 in Calm     97% 0.00 in meteobridge W/m2
12:29 59.4 °F 58.5 °F 30.10 in Calm     97% 0.00 in meteobridge W/m2
12:34 59.5 °F 58.6 °F 30.10 in Calm     97% 0.00 in meteobridge W/m2
12:39 59.7 °F 58.6 °F 30.10 in Calm     96% 0.00 in meteobridge W/m2
12:44 59.9 °F 58.5 °F 30.10 in Calm     95% 0.00 in meteobridge W/m2
12:49 60.1 °F 58.6 °F 30.10 in Calm   1.0 mph 95% 0.00 in meteobridge W/m2
12:54 60.1 °F 59.0 °F 30.10 in Calm     96% 0.00 in meteobridge W/m2
12:59 60.3 °F 58.8 °F 30.10 in Calm     95% 0.00 in meteobridge W/m2
13:04 60.4 °F 58.6 °F 30.10 in Calm     94% 0.00 in meteobridge W/m2
13:09 60.4 °F 58.5 °F 30.10 in Calm     93% 0.00 in meteobridge W/m2
13:14 60.6 °F 58.6 °F 30.10 in Calm   2.0 mph 93% 0.00 in meteobridge W/m2
13:19 60.6 °F 58.6 °F 30.10 in Calm     93% 0.00 in meteobridge W/m2
13:24 60.4 °F 58.6 °F 30.10 in Calm     94% 0.00 in meteobridge W/m2
13:29 60.4 °F 58.6 °F 30.10 in Calm     94% 0.00 in meteobridge W/m2
13:34 60.4 °F 58.6 °F 30.10 in Calm     94% 0.00 in meteobridge W/m2
13:39 60.3 °F 58.5 °F 30.10 in Calm     94% 0.00 in meteobridge W/m2
13:44 60.1 °F 58.6 °F 30.10 in Calm     95% 0.00 in meteobridge W/m2
13:49 60.1 °F 58.6 °F 30.10 in Calm     95% 0.00 in meteobridge W/m2
13:54 60.1 °F 58.6 °F 30.10 in Calm     95% 0.00 in meteobridge W/m2
13:59 60.1 °F 58.6 °F 30.10 in Calm     95% 0.00 in meteobridge W/m2
14:04 60.4 °F 59.4 °F 30.10 in Calm     96% 0.00 in meteobridge W/m2
14:09 60.4 °F 58.6 °F 30.10 in Calm     94% 0.00 in meteobridge W/m2
14:14 60.4 °F 58.6 °F 30.10 in Calm     94% 0.00 in meteobridge W/m2
14:19 60.4 °F 58.6 °F 30.10 in Calm     94% 0.00 in meteobridge W/m2
14:24 60.3 °F 58.5 °F 30.10 in Calm     94% 0.00 in meteobridge W/m2
14:29 60.3 °F 58.5 °F 30.10 in Calm     94% 0.00 in meteobridge W/m2
14:34 60.1 °F 58.6 °F 30.10 in Calm     95% 0.00 in meteobridge W/m2
14:39 60.1 °F 58.6 °F 30.10 in Calm     95% 0.00 in meteobridge W/m2
14:44 60.1 °F 58.6 °F 30.10 in Calm     95% 0.00 in meteobridge W/m2
14:49 60.3 °F 58.8 °F 30.09 in Calm     95% 0.00 in meteobridge W/m2
14:54 60.4 °F 59.0 °F 30.09 in Calm     95% 0.00 in meteobridge W/m2
14:59 60.8 °F 59.7 °F 30.09 in Calm     96% 0.00 in meteobridge W/m2
15:04 61.2 °F 59.4 °F 30.09 in Calm   3.0 mph 94% 0.00 in meteobridge W/m2
15:09 61.2 °F 59.4 °F 30.09 in Calm     94% 0.00 in meteobridge W/m2
15:14 61.3 °F 59.4 °F 30.09 in Calm   2.0 mph 93% 0.00 in meteobridge W/m2
15:19 61.3 °F 59.4 °F 30.09 in NW 0.9 mph 2.0 mph 93% 0.00 in meteobridge W/m2
15:24 61.7 °F 59.7 °F 30.09 in Calm     93% 0.00 in meteobridge W/m2
15:29 62.1 °F 59.7 °F 30.08 in Calm     92% 0.00 in meteobridge W/m2
15:34 62.4 °F 60.4 °F 30.08 in Calm     93% 0.00 in meteobridge W/m2
15:39 63.1 °F 59.2 °F 30.08 in Calm   3.0 mph 87% 0.00 in meteobridge W/m2
15:44 63.5 °F 59.5 °F 30.08 in Calm     87% 0.00 in meteobridge W/m2
15:49 63.7 °F 59.4 °F 30.08 in NNE 0.9 mph 1.0 mph 86% 0.00 in meteobridge W/m2
15:54 63.7 °F 59.7 °F 30.08 in Calm     87% 0.00 in meteobridge W/m2
15:59 64.0 °F 60.1 °F 30.07 in Calm   1.0 mph 87% 0.00 in meteobridge W/m2
16:04 64.6 °F 60.3 °F 30.08 in Calm   1.0 mph 86% 0.00 in meteobridge W/m2
16:09 64.9 °F 59.4 °F 30.07 in Calm   3.0 mph 82% 0.00 in meteobridge W/m2
16:14 64.9 °F 59.7 °F 30.08 in Calm     83% 0.00 in meteobridge W/m2
16:19 65.1 °F 58.8 °F 30.07 in North 0.9 mph 4.0 mph 80% 0.00 in meteobridge W/m2
16:24 65.5 °F 59.5 °F 30.07 in Calm   1.0 mph 81% 0.00 in meteobridge W/m2
16:29 65.1 °F 58.8 °F 30.07 in Calm     80% 0.00 in meteobridge W/m2
16:34 64.9 °F 57.9 °F 30.07 in Calm   5.0 mph 78% 0.00 in meteobridge W/m2
16:39 64.9 °F 57.6 °F 30.07 in Calm   3.0 mph 77% 0.00 in meteobridge W/m2
16:44 64.9 °F 57.9 °F 30.07 in Calm     78% 0.00 in meteobridge W/m2
16:49 64.9 °F 57.6 °F 30.07 in Calm   1.0 mph 77% 0.00 in meteobridge W/m2
16:54 65.1 °F 57.4 °F 30.07 in Calm     76% 0.00 in meteobridge W/m2
16:59 65.1 °F 57.7 °F 30.07 in North 0.9 mph 3.0 mph 77% 0.00 in meteobridge W/m2
17:04 65.5 °F 57.0 °F 30.07 in SSE 0.9 mph 4.0 mph 74% 0.00 in meteobridge W/m2
17:09 65.7 °F 57.2 °F 30.07 in Calm   2.0 mph 74% 0.00 in meteobridge W/m2
17:14 66.0 °F 57.9 °F 30.07 in Calm     75% 0.00 in meteobridge W/m2
17:19 66.0 °F 57.2 °F 30.07 in Calm   2.0 mph 73% 0.00 in meteobridge W/m2
17:24 66.2 °F 55.8 °F 30.06 in Calm   9.0 mph 69% 0.00 in meteobridge W/m2
17:29 66.4 °F 56.7 °F 30.06 in NNW 2.0 mph 4.0 mph 71% 0.00 in meteobridge W/m2
17:34 66.6 °F 57.2 °F 30.06 in Calm   2.0 mph 72% 0.00 in meteobridge W/m2
17:39 66.7 °F 57.0 °F 30.06 in Calm   1.0 mph 71% 0.00 in meteobridge W/m2
17:44 66.9 °F 58.3 °F 30.07 in Calm     74% 0.00 in meteobridge W/m2
17:49 66.9 °F 57.9 °F 30.07 in Calm     73% 0.00 in meteobridge W/m2
17:54 67.1 °F 57.4 °F 30.07 in Calm     71% 0.00 in meteobridge W/m2
17:59 67.1 °F 57.0 °F 30.07 in NW 0.9 mph 3.0 mph 70% 0.00 in meteobridge W/m2
18:04 66.9 °F 57.2 °F 30.07 in Calm   1.0 mph 71% 0.00 in meteobridge W/m2
18:09 66.7 °F 58.1 °F 30.07 in Calm     74% 0.00 in meteobridge W/m2
18:14 66.6 °F 58.1 °F 30.08 in Calm   1.0 mph 74% 0.00 in meteobridge W/m2
18:19 66.4 °F 58.6 °F 30.08 in Calm     76% 0.00 in meteobridge W/m2
18:24 66.0 °F 57.2 °F 30.08 in Calm     73% 0.00 in meteobridge W/m2
18:29 65.7 °F 57.2 °F 30.08 in Calm   1.0 mph 74% 0.00 in meteobridge W/m2
18:34 65.5 °F 56.7 °F 30.09 in Calm     73% 0.00 in meteobridge W/m2
18:39 65.1 °F 57.4 °F 30.09 in Calm   1.0 mph 76% 0.00 in meteobridge W/m2
18:44 64.8 °F 57.4 °F 30.09 in NW 0.9 mph 1.0 mph 77% 0.00 in meteobridge W/m2
18:49 64.6 °F 57.2 °F 30.08 in Calm     77% 0.00 in meteobridge W/m2
18:54 64.2 °F 57.2 °F 30.08 in Calm     78% 0.00 in meteobridge W/m2
18:59 63.9 °F 57.6 °F 30.09 in Calm     80% 0.00 in meteobridge W/m2
19:04 63.7 °F 57.4 °F 30.09 in Calm     80% 0.00 in meteobridge W/m2
19:09 63.1 °F 57.6 °F 30.09 in Calm     82% 0.00 in meteobridge W/m2
19:14 63.1 °F 57.9 °F 30.09 in Calm     83% 0.00 in meteobridge W/m2
19:19 62.8 °F 57.6 °F 30.09 in Calm     83% 0.00 in meteobridge W/m2
19:24 62.6 °F 57.4 °F 30.09 in Calm     83% 0.00 in meteobridge W/m2
19:29 62.4 °F 57.6 °F 30.09 in Calm     84% 0.00 in meteobridge W/m2
19:34 62.2 °F 57.7 °F 30.09 in Calm     85% 0.00 in meteobridge W/m2
19:39 62.1 °F 57.7 °F 30.09 in Calm     86% 0.00 in meteobridge W/m2
19:44 62.1 °F 57.7 °F 30.09 in Calm     86% 0.00 in meteobridge W/m2
19:49 61.9 °F 57.6 °F 30.09 in Calm     86% 0.00 in meteobridge W/m2
19:54 61.5 °F 57.6 °F 30.09 in Calm     87% 0.00 in meteobridge W/m2
19:59 61.3 °F 57.4 °F 30.09 in Calm     87% 0.00 in meteobridge W/m2
20:04 61.2 °F 57.2 °F 30.09 in Calm     87% 0.00 in meteobridge W/m2
20:09 61.0 °F 57.4 °F 30.09 in Calm     88% 0.00 in meteobridge W/m2
20:14 60.4 °F 57.2 °F 30.09 in Calm     89% 0.00 in meteobridge W/m2
20:19 60.3 °F 57.4 °F 30.09 in Calm     90% 0.00 in meteobridge W/m2
20:24 59.9 °F 57.0 °F 30.09 in Calm     90% 0.00 in meteobridge W/m2
20:29 59.5 °F 56.7 °F 30.10 in Calm     90% 0.00 in meteobridge W/m2
20:34 59.4 °F 56.7 °F 30.10 in Calm     91% 0.00 in meteobridge W/m2
20:39 59.2 °F 56.5 °F 30.10 in Calm     91% 0.00 in meteobridge W/m2
20:44 58.8 °F 56.5 °F 30.10 in Calm     92% 0.00 in meteobridge W/m2
20:49 58.5 °F 56.1 °F 30.10 in Calm     92% 0.00 in meteobridge W/m2
20:54 58.3 °F 55.9 °F 30.10 in Calm     92% 0.00 in meteobridge W/m2
20:59 58.1 °F 55.8 °F 30.11 in Calm     92% 0.00 in meteobridge W/m2
21:04 57.7 °F 55.8 °F 30.10 in Calm     93% 0.00 in meteobridge W/m2
21:09 57.6 °F 55.6 °F 30.10 in Calm     93% 0.00 in meteobridge W/m2
21:14 57.4 °F 55.4 °F 30.11 in Calm     93% 0.00 in meteobridge W/m2
21:19 57.2 °F 55.4 °F 30.11 in Calm     94% 0.00 in meteobridge W/m2
21:24 56.8 °F 55.2 °F 30.11 in Calm     94% 0.00 in meteobridge W/m2
21:29 56.7 °F 55.0 °F 30.11 in Calm     94% 0.00 in meteobridge W/m2
21:34 56.5 °F 54.9 °F 30.11 in Calm     94% 0.00 in meteobridge W/m2
21:39 56.3 °F 54.7 °F 30.11 in Calm     94% 0.00 in meteobridge W/m2
21:44 56.1 °F 54.5 °F 30.11 in Calm     94% 0.00 in meteobridge W/m2
21:49 55.9 °F 54.5 °F 30.12 in Calm     95% 0.00 in meteobridge W/m2
21:54 55.8 °F 54.3 °F 30.12 in Calm     95% 0.00 in meteobridge W/m2
21:59 55.6 °F 54.1 °F 30.12 in Calm     95% 0.00 in meteobridge W/m2
22:04 55.4 °F 54.0 °F 30.12 in Calm     95% 0.00 in meteobridge W/m2
22:09 55.2 °F 53.8 °F 30.12 in Calm     95% 0.00 in meteobridge W/m2
22:14 55.0 °F 53.6 °F 30.13 in Calm     95% 0.00 in meteobridge W/m2
22:19 55.0 °F 53.6 °F 30.13 in Calm     95% 0.00 in meteobridge W/m2
22:24 54.9 °F 53.4 °F 30.13 in Calm     95% 0.00 in meteobridge W/m2
22:28 54.9 °F 53.8 °F 30.13 in Calm     96% 0.00 in meteobridge W/m2
22:34 54.7 °F 53.6 °F 30.13 in Calm     96% 0.00 in meteobridge W/m2
22:39 54.5 °F 53.4 °F 30.14 in Calm     96% 0.00 in meteobridge W/m2
22:44 54.3 °F 53.2 °F 30.14 in Calm     96% 0.00 in meteobridge W/m2
22:49 54.1 °F 53.1 °F 30.14 in Calm     96% 0.00 in meteobridge W/m2
22:54 54.0 °F 52.9 °F 30.14 in Calm     96% 0.00 in meteobridge W/m2
22:59 54.0 °F 52.9 °F 30.14 in Calm     96% 0.00 in meteobridge W/m2
23:04 53.8 °F 52.7 °F 30.14 in Calm     96% 0.00 in meteobridge W/m2
23:09 53.6 °F 52.5 °F 30.14 in Calm     96% 0.00 in meteobridge W/m2
23:14 53.4 °F 52.3 °F 30.14 in Calm     96% 0.00 in meteobridge W/m2
23:19 53.2 °F 52.2 °F 30.14 in Calm     96% 0.00 in meteobridge W/m2
23:24 53.2 °F 52.2 °F 30.14 in Calm     96% 0.00 in meteobridge W/m2
23:29 53.1 °F 52.0 °F 30.14 in Calm     96% 0.00 in meteobridge W/m2
23:34 52.9 °F 51.8 °F 30.14 in Calm     96% 0.00 in meteobridge W/m2
23:39 52.9 °F 51.8 °F 30.14 in Calm     96% 0.00 in meteobridge W/m2
23:44 52.7 °F 51.6 °F 30.14 in Calm     96% 0.00 in meteobridge W/m2
23:49 52.5 °F 51.4 °F 30.14 in Calm     96% 0.00 in meteobridge W/m2
23:54 52.3 °F 51.3 °F 30.14 in Calm     96% 0.00 in meteobridge W/m2
23:59 52.3 °F 51.4 °F 30.14 in Calm     97% 0.00 in meteobridge W/m2
EllijayWeather
Compliments of Weather Underground - 2.5 mb